createdAt,value
2019-03-13T00:02:32.752Z,2.37
2019-03-13T00:05:02.722Z,1.70
2019-03-13T00:07:32.476Z,3.00
2019-03-13T00:10:02.121Z,4.27
2019-03-13T00:12:31.749Z,2.40
2019-03-13T00:15:01.394Z,2.27
2019-03-13T00:17:31.031Z,2.97
2019-03-13T00:20:00.679Z,4.30
2019-03-13T00:22:30.344Z,2.40
2019-03-13T00:24:59.991Z,2.63
2019-03-13T00:27:29.642Z,6.00
2019-03-13T00:29:59.293Z,3.43
2019-03-13T00:32:28.889Z,1.87
2019-03-13T00:34:58.890Z,2.37
2019-03-13T00:37:28.509Z,3.07
2019-03-13T00:39:58.168Z,3.17
2019-03-13T00:42:27.822Z,3.43
2019-03-13T00:44:57.432Z,2.10
2019-03-13T00:47:27.414Z,1.97
2019-03-13T00:49:57.175Z,3.73
2019-03-13T00:52:26.796Z,2.20
2019-03-13T00:54:56.397Z,3.07
2019-03-13T00:57:26.093Z,1.83
2019-03-13T00:59:55.723Z,1.93
2019-03-13T01:02:40.042Z,2.13
2019-03-13T01:05:13.740Z,1.63
2019-03-13T01:07:43.367Z,2.33
2019-03-13T01:10:13.163Z,5.00
2019-03-13T01:12:42.797Z,6.83
2019-03-13T01:15:12.415Z,2.70
2019-03-13T01:17:42.042Z,3.93
2019-03-13T01:20:11.789Z,1.83
2019-03-13T01:22:41.903Z,2.93
2019-03-13T01:25:11.672Z,4.97
2019-03-13T01:27:41.350Z,3.87
2019-03-13T01:30:11.717Z,4.97
2019-03-13T01:32:52.467Z,3.20
2019-03-13T01:35:46.878Z,5.27
2019-03-13T01:38:16.525Z,5.37
2019-03-13T01:40:46.192Z,5.80
2019-03-13T01:43:15.851Z,2.17
2019-03-13T01:45:45.613Z,2.97
2019-03-13T01:48:15.308Z,3.73
2019-03-13T01:50:44.992Z,3.87
2019-03-13T01:53:14.693Z,2.43
2019-03-13T01:55:44.332Z,3.70
2019-03-13T01:58:14.027Z,4.83
2019-03-13T02:00:43.726Z,5.60
2019-03-13T02:03:13.336Z,2.70
2019-03-13T02:05:43.010Z,4.00
2019-03-13T02:08:12.652Z,5.67
2019-03-13T02:10:42.267Z,2.63
2019-03-13T02:13:11.913Z,3.27
2019-03-13T02:15:41.579Z,3.90
2019-03-13T02:18:11.215Z,7.13
2019-03-13T02:20:41.120Z,3.70
2019-03-13T02:23:10.735Z,3.63
2019-03-13T02:25:40.358Z,3.63
2019-03-13T02:28:09.971Z,8.13
2019-03-13T02:30:39.673Z,3.43
2019-03-13T02:33:09.278Z,4.60
2019-03-13T02:35:38.919Z,3.93
2019-03-13T02:38:08.509Z,4.00
2019-03-13T02:40:38.153Z,5.57
2019-03-13T02:43:07.765Z,3.03
2019-03-13T02:45:37.400Z,3.53
2019-03-13T02:48:07.007Z,5.73
2019-03-13T02:50:36.649Z,6.57
2019-03-13T02:53:06.262Z,4.40
2019-03-13T02:55:35.895Z,5.87
2019-03-13T02:58:05.508Z,5.13
2019-03-13T03:00:52.720Z,4.83
2019-03-13T03:03:31.333Z,4.17
2019-03-13T03:06:01.539Z,5.33
2019-03-13T03:08:31.223Z,6.67
2019-03-13T03:11:00.854Z,7.90
2019-03-13T03:13:30.478Z,2.53
2019-03-13T03:16:00.124Z,3.10
2019-03-13T03:18:29.712Z,5.97
2019-03-13T03:20:59.421Z,6.73
2019-03-13T03:23:29.055Z,5.93
2019-03-13T03:25:58.811Z,4.87
2019-03-13T03:28:28.423Z,4.33
2019-03-13T03:30:58.201Z,4.10
2019-03-13T03:33:27.804Z,4.57
2019-03-13T03:35:57.425Z,3.73
2019-03-13T03:38:27.047Z,6.47
2019-03-13T03:40:56.762Z,3.37
2019-03-13T03:43:39.146Z,3.17
2019-03-13T03:45:57.659Z,5.07
2019-03-13T03:48:27.323Z,2.57
2019-03-13T03:50:56.974Z,4.63
2019-03-13T03:53:26.578Z,4.57
2019-03-13T03:55:56.179Z,3.17
2019-03-13T03:58:29.397Z,2.57
2019-03-13T04:00:57.168Z,3.87
2019-03-13T04:03:26.786Z,4.43
2019-03-13T04:05:56.427Z,5.53
2019-03-13T04:08:26.086Z,4.20
2019-03-13T04:10:55.708Z,4.57
2019-03-13T04:13:25.352Z,3.50
2019-03-13T04:15:54.990Z,4.57
2019-03-13T04:18:24.647Z,4.97
2019-03-13T04:20:54.303Z,5.80
2019-03-13T04:23:25.199Z,5.37
2019-03-13T04:25:54.959Z,4.43
2019-03-13T04:28:24.571Z,7.37
2019-03-13T04:30:54.221Z,2.77
2019-03-13T04:33:23.850Z,7.53
2019-03-13T04:35:53.585Z,4.73
2019-03-13T04:38:23.214Z,4.90
2019-03-13T04:40:52.836Z,4.87
2019-03-13T04:43:22.496Z,2.43
2019-03-13T04:45:52.110Z,4.30
2019-03-13T04:48:21.782Z,4.20
2019-03-13T04:50:51.362Z,5.47
2019-03-13T04:53:21.006Z,7.13
2019-03-13T04:55:52.519Z,3.40
2019-03-13T04:58:21.904Z,3.67
2019-03-13T05:00:51.580Z,5.50
2019-03-13T05:03:21.382Z,6.60
2019-03-13T05:05:56.464Z,2.83
2019-03-13T05:08:45.105Z,5.83
2019-03-13T05:11:09.547Z,4.47
2019-03-13T05:13:39.135Z,4.13
2019-03-13T05:16:08.725Z,7.10
2019-03-13T05:18:38.346Z,3.83
2019-03-13T05:21:07.999Z,4.63
2019-03-13T05:23:37.620Z,7.23
2019-03-13T05:26:07.367Z,5.17
2019-03-13T05:28:39.293Z,2.63
2019-03-13T05:31:11.715Z,5.07
2019-03-13T05:33:44.786Z,3.23
2019-03-13T05:36:22.451Z,4.83
2019-03-13T05:38:52.064Z,3.47
2019-03-13T05:41:21.674Z,2.87
2019-03-13T05:43:51.297Z,3.53
2019-03-13T05:46:20.933Z,4.83
2019-03-13T05:48:50.583Z,4.30
2019-03-13T05:51:20.253Z,3.13
2019-03-13T05:53:49.948Z,3.53
2019-03-13T05:56:19.550Z,4.37
2019-03-13T05:58:49.189Z,4.30
2019-03-13T06:01:18.833Z,5.87
2019-03-13T06:03:48.509Z,3.53
2019-03-13T06:06:18.151Z,5.67
2019-03-13T06:08:47.773Z,4.47
2019-03-13T06:11:17.399Z,6.13
2019-03-13T06:13:47.574Z,4.47
2019-03-13T06:16:17.268Z,6.87
2019-03-13T06:18:46.871Z,7.23
2019-03-13T06:21:16.507Z,4.00
2019-03-13T06:23:47.987Z,5.70
2019-03-13T06:26:17.961Z,5.80
2019-03-13T06:28:47.609Z,5.93
2019-03-13T06:31:17.283Z,5.67
2019-03-13T06:33:46.955Z,6.70
2019-03-13T06:36:16.580Z,5.77
2019-03-13T06:38:46.190Z,6.53
2019-03-13T06:41:15.857Z,5.40
2019-03-13T06:43:45.495Z,6.50
2019-03-13T06:46:15.066Z,6.13
2019-03-13T06:48:44.721Z,6.10
2019-03-13T06:51:14.348Z,5.00
2019-03-13T06:53:43.964Z,5.63
2019-03-13T06:56:13.614Z,6.20
2019-03-13T06:58:52.427Z,4.50
2019-03-13T07:01:39.772Z,4.87
2019-03-13T07:04:28.290Z,6.23
2019-03-13T07:07:15.475Z,5.97
2019-03-13T07:09:52.964Z,5.80
2019-03-13T07:12:59.678Z,4.70
2019-03-13T07:15:47.053Z,6.13
2019-03-13T07:18:33.992Z,4.53
2019-03-13T07:21:27.870Z,4.00
2019-03-13T07:24:10.764Z,4.57
2019-03-13T07:26:57.744Z,5.67
2019-03-13T07:29:49.013Z,4.17
2019-03-13T07:32:32.665Z,5.27
2019-03-13T07:35:23.142Z,8.20
2019-03-13T07:38:08.555Z,5.40
2019-03-13T07:41:02.966Z,3.93
2019-03-13T07:43:53.692Z,4.37
2019-03-13T07:46:30.686Z,6.77
2019-03-13T07:49:28.423Z,8.70
2019-03-13T07:52:22.984Z,7.43
2019-03-13T07:55:11.443Z,6.70
2019-03-13T07:57:59.965Z,7.10
2019-03-13T08:00:47.018Z,5.33
2019-03-13T08:03:35.536Z,9.60
2019-03-13T08:06:25.143Z,5.50
2019-03-13T08:09:05.870Z,4.77
2019-03-13T08:12:00.396Z,7.43
2019-03-13T08:14:44.737Z,7.27
2019-03-13T08:17:36.262Z,6.60
2019-03-13T08:20:33.859Z,6.57
2019-03-13T08:23:18.831Z,7.80
2019-03-13T08:26:13.502Z,7.43
2019-03-13T08:28:48.302Z,9.30
2019-03-13T08:31:34.130Z,7.17
2019-03-13T08:34:31.005Z,6.47
2019-03-13T08:37:19.490Z,9.43
2019-03-13T08:40:14.129Z,7.23
2019-03-13T08:43:01.028Z,7.73
2019-03-13T08:45:49.553Z,7.67
2019-03-13T08:48:29.401Z,6.77
2019-03-13T08:51:16.714Z,7.10
2019-03-13T08:54:14.111Z,8.03
2019-03-13T08:56:51.738Z,7.27
2019-03-13T08:59:27.057Z,7.83
2019-03-13T09:02:15.578Z,9.03
2019-03-13T09:05:06.867Z,6.90
2019-03-13T09:07:53.992Z,7.77
2019-03-13T09:10:43.463Z,6.47
2019-03-13T09:13:30.926Z,8.97
2019-03-13T09:16:31.371Z,5.27
2019-03-13T09:19:10.695Z,12.13
2019-03-13T09:22:05.344Z,8.80
2019-03-13T09:25:10.682Z,7.50
2019-03-13T09:27:50.316Z,9.63
2019-03-13T09:30:37.352Z,8.50
2019-03-13T09:33:28.144Z,8.83
2019-03-13T09:36:12.620Z,9.37
2019-03-13T09:38:52.810Z,7.40
2019-03-13T09:41:31.276Z,9.00
2019-03-13T09:44:19.764Z,11.03
2019-03-13T09:47:23.446Z,9.73
2019-03-13T09:50:02.691Z,11.87
2019-03-13T09:53:09.080Z,10.97
2019-03-13T09:55:45.509Z,9.70
2019-03-13T09:58:34.047Z,10.57
2019-03-13T10:01:25.542Z,12.37
2019-03-13T10:04:07.242Z,10.77
2019-03-13T10:06:55.726Z,12.00
2019-03-13T10:09:47.559Z,9.93
2019-03-13T10:12:28.768Z,13.50
2019-03-13T10:15:13.252Z,11.60
2019-03-13T10:18:04.701Z,12.67
2019-03-13T10:20:56.066Z,14.27
2019-03-13T10:23:44.579Z,16.10
2019-03-13T10:26:24.093Z,16.10
2019-03-13T10:29:05.463Z,15.00
2019-03-13T10:31:46.539Z,15.50
2019-03-13T10:34:42.767Z,18.10
2019-03-13T10:37:21.229Z,17.97
2019-03-13T10:40:03.799Z,17.87
2019-03-13T10:42:50.739Z,14.80
2019-03-13T10:45:26.657Z,18.93
2019-03-13T10:48:18.328Z,17.63
2019-03-13T10:51:18.918Z,16.20
2019-03-13T10:54:10.205Z,19.00
2019-03-13T10:56:57.372Z,17.47
2019-03-13T10:59:33.653Z,15.43
2019-03-13T11:02:16.052Z,14.80
2019-03-13T11:04:56.251Z,17.90
2019-03-13T11:07:56.991Z,15.87
2019-03-13T11:10:42.285Z,16.13
2019-03-13T11:13:37.188Z,13.80
2019-03-13T11:16:24.240Z,19.63
2019-03-13T11:19:07.602Z,17.70
2019-03-13T11:21:58.893Z,15.80
2019-03-13T11:24:36.253Z,15.90
2019-03-13T11:27:12.419Z,15.70
2019-03-13T11:30:03.799Z,13.50
2019-03-13T11:32:55.084Z,13.33
2019-03-13T11:35:49.403Z,11.63
2019-03-13T11:38:45.947Z,13.67
2019-03-13T11:41:26.716Z,12.40
2019-03-13T11:44:12.411Z,11.50
2019-03-13T11:47:07.122Z,10.97
2019-03-13T11:49:56.926Z,11.40
2019-03-13T11:52:43.809Z,11.47
2019-03-13T11:55:28.981Z,10.17
2019-03-13T11:58:29.687Z,11.77
2019-03-13T12:01:08.211Z,9.17
2019-03-13T12:03:55.328Z,9.87
2019-03-13T12:06:42.388Z,10.37
2019-03-13T12:09:29.283Z,10.67
2019-03-13T12:12:36.047Z,11.27
2019-03-13T12:15:34.492Z,13.83
2019-03-13T12:18:21.716Z,14.83
2019-03-13T12:21:19.143Z,19.47
2019-03-13T12:24:06.256Z,19.13
2019-03-13T12:26:45.529Z,17.17
2019-03-13T12:29:46.147Z,18.40
2019-03-13T12:32:34.691Z,17.70
2019-03-13T12:35:26.211Z,15.30
2019-03-13T12:38:17.137Z,16.40
2019-03-13T12:41:14.424Z,16.07
2019-03-13T12:44:01.634Z,14.87
2019-03-13T12:46:50.169Z,15.20
2019-03-13T12:49:35.476Z,11.67
2019-03-13T12:52:30.081Z,12.67
2019-03-13T12:55:36.851Z,11.67
2019-03-13T12:58:27.745Z,13.20
2019-03-13T13:01:03.610Z,11.63
2019-03-13T13:03:41.628Z,12.10
2019-03-13T13:06:33.055Z,10.67
2019-03-13T13:09:36.895Z,11.67
2019-03-13T13:12:40.603Z,15.73
2019-03-13T13:15:27.929Z,17.13
2019-03-13T13:18:19.217Z,15.60
2019-03-13T13:20:48.871Z,13.47
2019-03-13T13:23:18.594Z,15.33
2019-03-13T13:25:48.271Z,14.90
2019-03-13T13:28:17.947Z,14.60
2019-03-13T13:30:47.626Z,16.00
2019-03-13T13:33:17.265Z,13.43
2019-03-13T13:35:46.922Z,18.43
2019-03-13T13:38:16.946Z,17.83
2019-03-13T13:40:46.587Z,14.30
2019-03-13T13:43:16.236Z,15.03
2019-03-13T13:46:06.083Z,18.30
2019-03-13T13:48:35.725Z,16.40
2019-03-13T13:51:05.414Z,14.83
2019-03-13T13:53:35.079Z,15.33
2019-03-13T13:56:04.855Z,14.00
2019-03-13T13:58:34.496Z,15.20
2019-03-13T14:01:04.178Z,16.03
2019-03-13T14:03:33.833Z,16.60
2019-03-13T14:06:03.500Z,13.90
2019-03-13T14:08:33.153Z,17.17
2019-03-13T14:11:02.791Z,16.47
2019-03-13T14:13:32.476Z,13.97
2019-03-13T14:16:02.121Z,12.13
2019-03-13T14:18:31.782Z,11.93
2019-03-13T14:21:01.437Z,13.13
2019-03-13T14:23:31.093Z,13.20
2019-03-13T14:26:00.747Z,11.83
2019-03-13T14:28:30.405Z,13.87
2019-03-13T14:31:00.049Z,11.00
2019-03-13T14:33:29.697Z,12.87
2019-03-13T14:35:59.354Z,10.87
2019-03-13T14:38:29.101Z,12.17
2019-03-13T14:40:58.662Z,9.77
2019-03-13T14:43:28.342Z,10.93
2019-03-13T14:45:57.956Z,10.70
2019-03-13T14:48:27.631Z,10.03
2019-03-13T14:50:57.319Z,7.67
2019-03-13T14:53:27.011Z,10.97
2019-03-13T14:55:56.656Z,12.47
2019-03-13T14:58:26.292Z,11.67
2019-03-13T15:00:55.921Z,7.47
2019-03-13T15:03:25.571Z,10.57
2019-03-13T15:05:55.319Z,13.73
2019-03-13T15:08:24.963Z,8.77
2019-03-13T15:10:54.616Z,8.90
2019-03-13T15:13:24.294Z,8.63
2019-03-13T15:15:53.971Z,7.83
2019-03-13T15:18:23.647Z,9.00
2019-03-13T15:20:53.328Z,11.70
2019-03-13T15:23:23.024Z,7.83
2019-03-13T15:25:52.729Z,10.50
2019-03-13T15:28:22.405Z,6.70
2019-03-13T15:30:52.032Z,11.13
2019-03-13T15:33:21.712Z,6.87
2019-03-13T15:35:51.786Z,7.60
2019-03-13T15:38:21.542Z,9.47
2019-03-13T15:40:51.216Z,6.60
2019-03-13T15:43:20.867Z,6.93
2019-03-13T15:45:50.504Z,9.33
2019-03-13T15:48:20.150Z,9.43
2019-03-13T15:50:49.780Z,6.47
2019-03-13T15:53:19.470Z,7.47
2019-03-13T15:55:49.269Z,11.30
2019-03-13T15:58:18.904Z,10.40
2019-03-13T16:00:48.577Z,9.07
2019-03-13T16:03:18.191Z,10.23
2019-03-13T16:05:47.800Z,6.87
2019-03-13T16:08:17.403Z,8.20
2019-03-13T16:10:47.054Z,14.23
2019-03-13T16:13:16.663Z,8.53
2019-03-13T16:15:46.468Z,8.87
2019-03-13T16:18:16.086Z,12.00
2019-03-13T16:20:45.715Z,12.17
2019-03-13T16:23:17.220Z,12.60
2019-03-13T16:25:47.047Z,13.00
2019-03-13T16:28:16.655Z,8.93
2019-03-13T16:30:46.675Z,8.80
2019-03-13T16:33:16.321Z,9.20
2019-03-13T16:35:45.936Z,9.33
2019-03-13T16:38:15.556Z,8.27
2019-03-13T16:40:45.175Z,11.40
2019-03-13T16:43:14.808Z,10.43
2019-03-13T16:45:46.882Z,10.13
2019-03-13T16:48:16.504Z,9.53
2019-03-13T16:50:46.141Z,7.50
2019-03-13T16:53:15.752Z,11.00
2019-03-13T16:55:45.359Z,9.20
2019-03-13T16:58:15.020Z,8.03
2019-03-13T17:00:50.642Z,7.60
2019-03-13T17:03:19.707Z,8.57
2019-03-13T17:05:49.350Z,6.10
2019-03-13T17:08:22.867Z,12.93
2019-03-13T17:10:52.573Z,7.23
2019-03-13T17:13:22.195Z,12.13
2019-03-13T17:15:51.827Z,10.73
2019-03-13T17:18:21.494Z,12.53
2019-03-13T17:20:51.091Z,8.30
2019-03-13T17:23:20.718Z,16.50
2019-03-13T17:25:50.507Z,11.93
2019-03-13T17:28:20.117Z,6.93
2019-03-13T17:30:49.733Z,8.90
2019-03-13T17:33:19.413Z,12.23
2019-03-13T17:35:49.026Z,13.23
2019-03-13T17:38:18.676Z,13.37
2019-03-13T17:40:48.336Z,17.97
2019-03-13T17:43:17.986Z,13.80
2019-03-13T17:45:47.582Z,10.53
2019-03-13T17:48:17.245Z,11.37
2019-03-13T17:50:46.848Z,11.13
2019-03-13T17:53:16.482Z,11.53
2019-03-13T17:55:46.107Z,12.30
2019-03-13T17:58:15.727Z,11.77
2019-03-13T18:00:50.398Z,11.83
2019-03-13T18:03:20.508Z,11.23
2019-03-13T18:05:50.462Z,13.10
2019-03-13T18:08:20.086Z,14.63
2019-03-13T18:10:49.713Z,10.33
2019-03-13T18:13:19.366Z,12.13
2019-03-13T18:15:48.989Z,16.30
2019-03-13T18:18:18.606Z,13.63
2019-03-13T18:20:48.246Z,15.33
2019-03-13T18:23:17.873Z,18.13
2019-03-13T18:25:47.630Z,14.03
2019-03-13T18:28:17.250Z,11.80
2019-03-13T18:30:47.044Z,13.27
2019-03-13T18:33:16.667Z,18.93
2019-03-13T18:35:46.286Z,18.27
2019-03-13T18:38:16.271Z,13.43
2019-03-13T18:40:45.887Z,12.57
2019-03-13T18:43:15.520Z,15.00
2019-03-13T18:45:45.148Z,15.60
2019-03-13T18:48:14.816Z,23.17
2019-03-13T18:50:44.429Z,13.37
2019-03-13T18:53:14.119Z,13.90
2019-03-13T18:55:44.135Z,10.17
2019-03-13T18:58:14.286Z,14.27
2019-03-13T19:00:44.004Z,16.07
2019-03-13T19:03:13.632Z,15.57
2019-03-13T19:05:43.275Z,20.20
2019-03-13T19:08:12.886Z,19.40
2019-03-13T19:10:42.663Z,17.87
2019-03-13T19:13:12.303Z,16.50
2019-03-13T19:15:41.932Z,18.87
2019-03-13T19:18:11.542Z,16.13
2019-03-13T19:20:41.177Z,17.50
2019-03-13T19:23:13.951Z,15.63
2019-03-13T19:25:42.209Z,16.63
2019-03-13T19:28:11.848Z,17.63
2019-03-13T19:30:41.505Z,16.93
2019-03-13T19:33:11.169Z,17.03
2019-03-13T19:35:40.847Z,14.60
2019-03-13T19:38:10.541Z,17.47
2019-03-13T19:40:40.144Z,19.60
2019-03-13T19:43:09.795Z,15.53
2019-03-13T19:45:41.133Z,20.83
2019-03-13T19:48:10.779Z,17.63
2019-03-13T19:50:40.504Z,19.63
2019-03-13T19:53:10.159Z,21.47
2019-03-13T19:55:39.854Z,19.20
2019-03-13T19:58:09.537Z,24.63
2019-03-13T20:00:39.174Z,25.07
2019-03-13T20:03:09.413Z,17.77
2019-03-13T20:05:45.213Z,24.30
2019-03-13T20:08:13.475Z,22.27
2019-03-13T20:10:41.740Z,17.03
2019-03-13T20:13:11.452Z,16.77
2019-03-13T20:15:41.195Z,20.97
2019-03-13T20:18:10.884Z,22.10
2019-03-13T20:20:40.570Z,20.80
2019-03-13T20:23:12.207Z,17.20
2019-03-13T20:25:41.692Z,23.40
2019-03-13T20:28:11.343Z,17.37
2019-03-13T20:30:41.183Z,17.00
2019-03-13T20:33:10.833Z,19.17
2019-03-13T20:35:40.589Z,23.03
2019-03-13T20:38:10.288Z,23.30
2019-03-13T20:40:39.982Z,22.30
2019-03-13T20:43:11.961Z,22.43
2019-03-13T20:45:41.718Z,19.93
2019-03-13T20:48:13.318Z,25.67
2019-03-13T20:50:42.639Z,17.67
2019-03-13T20:53:12.361Z,20.07
2019-03-13T20:55:45.203Z,23.97
2019-03-13T20:58:17.351Z,15.77
2019-03-13T21:00:47.070Z,16.97
2019-03-13T21:03:16.852Z,22.53
2019-03-13T21:05:46.458Z,23.43
2019-03-13T21:08:16.066Z,21.83
2019-03-13T21:10:45.697Z,23.60
2019-03-13T21:13:15.327Z,25.30
2019-03-13T21:15:44.979Z,18.83
2019-03-13T21:18:14.606Z,22.93
2019-03-13T21:20:44.224Z,21.47
2019-03-13T21:23:13.830Z,17.67
2019-03-13T21:25:43.448Z,19.07
2019-03-13T21:28:13.043Z,15.80
2019-03-13T21:30:42.701Z,26.77
2019-03-13T21:33:12.301Z,19.27
2019-03-13T21:35:41.933Z,15.63
2019-03-13T21:38:13.152Z,22.13
2019-03-13T21:40:42.904Z,26.65
2019-03-13T21:43:12.512Z,26.23
2019-03-13T21:45:42.160Z,21.73
2019-03-13T21:48:11.777Z,24.80
2019-03-13T21:50:41.401Z,23.07
2019-03-13T21:53:11.167Z,24.83
2019-03-13T21:55:40.808Z,29.13
2019-03-13T21:58:10.416Z,19.87
2019-03-13T22:00:40.029Z,25.03
2019-03-13T22:03:09.705Z,26.83
2019-03-13T22:05:40.301Z,22.53
2019-03-13T22:08:09.942Z,27.37
2019-03-13T22:10:39.613Z,23.57
2019-03-13T22:13:09.249Z,25.97
2019-03-13T22:15:38.905Z,30.60
2019-03-13T22:18:08.728Z,26.10
2019-03-13T22:20:38.331Z,22.70
2019-03-13T22:23:08.023Z,27.03
2019-03-13T22:25:37.664Z,25.13
2019-03-13T22:28:07.357Z,31.53
2019-03-13T22:30:37.014Z,22.57
2019-03-13T22:33:06.721Z,29.87
2019-03-13T22:35:36.380Z,22.70
2019-03-13T22:38:06.041Z,27.77
2019-03-13T22:40:35.699Z,31.83
2019-03-13T22:43:05.382Z,24.83
2019-03-13T22:45:35.002Z,29.50
2019-03-13T22:48:04.651Z,27.27
2019-03-13T22:50:34.278Z,24.97
2019-03-13T22:53:03.922Z,32.40
2019-03-13T22:55:33.599Z,27.47
2019-03-13T22:58:03.264Z,29.50
2019-03-13T23:00:58.098Z,25.60
2019-03-13T23:03:29.371Z,28.07
2019-03-13T23:05:59.492Z,29.53
2019-03-13T23:08:31.157Z,24.20
2019-03-13T23:11:00.632Z,28.60
2019-03-13T23:13:30.298Z,23.57
2019-03-13T23:15:59.943Z,29.57
2019-03-13T23:18:29.588Z,19.40
2019-03-13T23:20:59.212Z,20.13
2019-03-13T23:23:28.857Z,15.40
2019-03-13T23:25:58.523Z,24.03
2019-03-13T23:28:28.192Z,30.63
2019-03-13T23:30:57.853Z,22.20
2019-03-13T23:33:27.520Z,21.60
2019-03-13T23:35:57.298Z,23.73
2019-03-13T23:38:26.930Z,29.57
2019-03-13T23:40:56.719Z,19.60
2019-03-13T23:43:26.347Z,20.40
2019-03-13T23:45:56.006Z,19.97
2019-03-13T23:48:25.666Z,20.67
2019-03-13T23:50:55.292Z,21.20
2019-03-13T23:53:24.916Z,14.43
2019-03-13T23:55:54.716Z,18.00
2019-03-13T23:58:24.373Z,16.23
